sensor_id;sensor_type;location;lat;lon;timestamp;pressure;altitude;pressure_sealevel;temperature;humidity
66206;BME280;53009;52.490;4.976;2022-09-25T00:02:20;101800;;;10.8;10.3
66206;BME280;53009;52.490;4.976;2022-09-25T00:07:20;101800;;;10.7;10.3
66206;BME280;53009;52.490;4.976;2022-09-25T00:12:20;101800;;;10.6;10.4
66206;BME280;53009;52.490;4.976;2022-09-25T00:17:20;101800;;;10.6;10.4
66206;BME280;53009;52.490;4.976;2022-09-25T00:22:22;101800;;;10.6;10.5
66206;BME280;53009;52.490;4.976;2022-09-25T00:27:20;101800;;;10.5;10.5
66206;BME280;53009;52.490;4.976;2022-09-25T00:32:20;101800;;;10.5;10.5
66206;BME280;53009;52.490;4.976;2022-09-25T00:37:20;101800;;;10.4;10.6
66206;BME280;53009;52.490;4.976;2022-09-25T00:42:20;101800;;;10.4;10.5
66206;BME280;53009;52.490;4.976;2022-09-25T00:47:21;101800;;;10.3;10.6
66206;BME280;53009;52.490;4.976;2022-09-25T00:52:20;101800;;;10.3;10.6
66206;BME280;53009;52.490;4.976;2022-09-25T00:57:20;101800;;;10.3;10.6
66206;BME280;53009;52.490;4.976;2022-09-25T01:02:22;101800;;;10.2;10.6
66206;BME280;53009;52.490;4.976;2022-09-25T01:07:20;101800;;;10.2;10.8
66206;BME280;53009;52.490;4.976;2022-09-25T01:12:20;101800;;;10.1;10.7
66206;BME280;53009;52.490;4.976;2022-09-25T01:17:21;101800;;;10.1;10.8
66206;BME280;53009;52.490;4.976;2022-09-25T01:22:22;101800;;;10.1;10.8
66206;BME280;53009;52.490;4.976;2022-09-25T01:32:21;101800;;;10;11
66206;BME280;53009;52.490;4.976;2022-09-25T01:37:22;101800;;;9.9;11
66206;BME280;53009;52.490;4.976;2022-09-25T01:42:20;101800;;;9.9;11.1
66206;BME280;53009;52.490;4.976;2022-09-25T01:47:21;101800;;;9.9;11.1
66206;BME280;53009;52.490;4.976;2022-09-25T01:52:21;101800;;;9.8;11
66206;BME280;53009;52.490;4.976;2022-09-25T01:57:21;101800;;;9.8;11.1
66206;BME280;53009;52.490;4.976;2022-09-25T02:02:20;101800;;;9.7;11
66206;BME280;53009;52.490;4.976;2022-09-25T02:07:21;101800;;;9.7;11.3
66206;BME280;53009;52.490;4.976;2022-09-25T02:12:24;101800;;;9.7;11.4
66206;BME280;53009;52.490;4.976;2022-09-25T02:17:20;101800;;;9.7;11.4
66206;BME280;53009;52.490;4.976;2022-09-25T02:22:20;101800;;;9.7;11.5
66206;BME280;53009;52.490;4.976;2022-09-25T02:27:20;101800;;;9.6;11.4
66206;BME280;53009;52.490;4.976;2022-09-25T02:32:20;101800;;;9.6;11.5
66206;BME280;53009;52.490;4.976;2022-09-25T02:37:20;101800;;;9.5;11.5
66206;BME280;53009;52.490;4.976;2022-09-25T02:42:24;101800;;;9.5;11.5
66206;BME280;53009;52.490;4.976;2022-09-25T02:47:21;101800;;;9.5;11.6
66206;BME280;53009;52.490;4.976;2022-09-25T02:52:21;101800;;;9.4;11.6
66206;BME280;53009;52.490;4.976;2022-09-25T02:57:22;101800;;;9.4;11.7
66206;BME280;53009;52.490;4.976;2022-09-25T03:02:20;101800;;;9.4;11.7
66206;BME280;53009;52.490;4.976;2022-09-25T03:07:20;101800;;;9.4;11.7
66206;BME280;53009;52.490;4.976;2022-09-25T03:12:20;101800;;;9.3;11.8
66206;BME280;53009;52.490;4.976;2022-09-25T03:17:20;101800;;;9.3;11.9
66206;BME280;53009;52.490;4.976;2022-09-25T03:22:20;101800;;;9.3;11.9
66206;BME280;53009;52.490;4.976;2022-09-25T03:27:20;101800;;;9.2;11.9
66206;BME280;53009;52.490;4.976;2022-09-25T03:32:20;101800;;;9.2;12
66206;BME280;53009;52.490;4.976;2022-09-25T03:37:20;101800;;;9.2;12
66206;BME280;53009;52.490;4.976;2022-09-25T03:42:20;101800;;;9.1;12
66206;BME280;53009;52.490;4.976;2022-09-25T03:47:20;101800;;;9.1;12
66206;BME280;53009;52.490;4.976;2022-09-25T03:52:20;101800;;;9.1;12
66206;BME280;53009;52.490;4.976;2022-09-25T03:57:20;101800;;;9.1;12.1
66206;BME280;53009;52.490;4.976;2022-09-25T04:02:20;101800;;;9.1;12.1
66206;BME280;53009;52.490;4.976;2022-09-25T04:07:20;101800;;;9;12.1
66206;BME280;53009;52.490;4.976;2022-09-25T04:12:20;101800;;;9;12.1
66206;BME280;53009;52.490;4.976;2022-09-25T04:17:20;101800;;;9;12.2
66206;BME280;53009;52.490;4.976;2022-09-25T04:22:20;101800;;;9;12.2
66206;BME280;53009;52.490;4.976;2022-09-25T04:27:24;101800;;;8.9;12.2
66206;BME280;53009;52.490;4.976;2022-09-25T04:32:20;101700;;;8.9;12.2
66206;BME280;53009;52.490;4.976;2022-09-25T04:37:20;101700;;;8.9;12.3
66206;BME280;53009;52.490;4.976;2022-09-25T04:42:20;101700;;;8.8;12.3
66206;BME280;53009;52.490;4.976;2022-09-25T04:47:21;101700;;;8.8;12.4
66206;BME280;53009;52.490;4.976;2022-09-25T04:48:21;101700;;;8.8;12.3
66206;BME280;53009;52.490;4.976;2022-09-25T04:50:37;101700;;;8.8;12.4
66206;BME280;53009;52.490;4.976;2022-09-25T04:55:37;101700;;;8.8;12.4
66206;BME280;53009;52.490;4.976;2022-09-25T04:56:47;101700;;;8.8;12.4
66206;BME280;53009;52.490;4.976;2022-09-25T05:00:04;101700;;;8.7;12.4
66206;BME280;53009;52.490;4.976;2022-09-25T05:03:35;101700;;;8.7;12.3
66206;BME280;53009;52.490;4.976;2022-09-25T05:08:24;101700;;;8.6;12.5
66206;BME280;53009;52.490;4.976;2022-09-25T05:10:45;101700;;;8.6;12.5
66206;BME280;53009;52.490;4.976;2022-09-25T05:12:27;101700;;;8.6;12.6
66206;BME280;53009;52.490;4.976;2022-09-25T05:15:33;101700;;;8.7;12.6
66206;BME280;53009;52.490;4.976;2022-09-25T05:17:18;101700;;;8.6;12.6
66206;BME280;53009;52.490;4.976;2022-09-25T05:19:28;101700;;;8.7;12.6
66206;BME280;53009;52.490;4.976;2022-09-25T05:21:22;101700;;;8.7;12.6
66206;BME280;53009;52.490;4.976;2022-09-25T05:26:22;101700;;;8.6;12.7
66206;BME280;53009;52.490;4.976;2022-09-25T05:26:59;101700;;;8.6;12.6
66206;BME280;53009;52.490;4.976;2022-09-25T05:28:54;101700;;;8.6;12.6
66206;BME280;53009;52.490;4.976;2022-09-25T05:29:44;101700;;;8.6;12.6
66206;BME280;53009;52.490;4.976;2022-09-25T05:31:47;101700;;;8.6;12.7
66206;BME280;53009;52.490;4.976;2022-09-25T05:34:21;101700;;;8.6;12.6
66206;BME280;53009;52.490;4.976;2022-09-25T05:39:27;101700;;;8.6;12.7
66206;BME280;53009;52.490;4.976;2022-09-25T05:42:33;101700;;;8.6;12.8
66206;BME280;53009;52.490;4.976;2022-09-25T05:45:54;101700;;;8.7;12.9
66206;BME280;53009;52.490;4.976;2022-09-25T05:46:53;101700;;;8.7;12.9
66206;BME280;53009;52.490;4.976;2022-09-25T05:48:52;101700;;;8.7;13
66206;BME280;53009;52.490;4.976;2022-09-25T05:51:05;101800;;;8.8;12.9
66206;BME280;53009;52.490;4.976;2022-09-25T05:53:59;101800;;;8.8;13.1
66206;BME280;53009;52.490;4.976;2022-09-25T05:56:00;101800;;;8.8;12.9
66206;BME280;53009;52.490;4.976;2022-09-25T05:58:23;101700;;;8.9;13
66206;BME280;53009;52.490;4.976;2022-09-25T06:01:22;101700;;;8.9;13
66206;BME280;53009;52.490;4.976;2022-09-25T06:05:41;101700;;;9;13
66206;BME280;53009;52.490;4.976;2022-09-25T06:07:51;101700;;;9;13
66206;BME280;53009;52.490;4.976;2022-09-25T06:10:09;101800;;;9;13
66206;BME280;53009;52.490;4.976;2022-09-25T06:12:35;101700;;;9;13
66206;BME280;53009;52.490;4.976;2022-09-25T06:17:35;101800;;;9.1;13.4
66206;BME280;53009;52.490;4.976;2022-09-25T06:19:49;101800;;;9.1;13.4
66206;BME280;53009;52.490;4.976;2022-09-25T06:21:59;101800;;;9.2;13.5
66206;BME280;53009;52.490;4.976;2022-09-25T06:26:02;101800;;;9.3;13.5
66206;BME280;53009;52.490;4.976;2022-09-25T06:26:59;101800;;;9.3;13.5
66206;BME280;53009;52.490;4.976;2022-09-25T06:27:59;101800;;;9.3;13.5
66206;BME280;53009;52.490;4.976;2022-09-25T06:32:34;101800;;;9.4;13.4
66206;BME280;53009;52.490;4.976;2022-09-25T06:34:48;101800;;;9.4;13.4
66206;BME280;53009;52.490;4.976;2022-09-25T06:39:48;101800;;;9.5;13.5
66206;BME280;53009;52.490;4.976;2022-09-25T06:40:18;101800;;;9.6;13.6
66206;BME280;53009;52.490;4.976;2022-09-25T06:42:28;101800;;;9.7;13.6
66206;BME280;53009;52.490;4.976;2022-09-25T06:43:00;101800;;;9.7;13.6
66206;BME280;53009;52.490;4.976;2022-09-25T06:45:11;101800;;;9.8;13.8
66206;BME280;53009;52.490;4.976;2022-09-25T06:46:27;101800;;;9.9;13.9
66206;BME280;53009;52.490;4.976;2022-09-25T06:47:16;101800;;;9.9;14
66206;BME280;53009;52.490;4.976;2022-09-25T06:51:19;101800;;;10.2;14
66206;BME280;53009;52.490;4.976;2022-09-25T06:56:19;101800;;;10.5;13.9
66206;BME280;53009;52.490;4.976;2022-09-25T06:59:07;101800;;;10.6;14
66206;BME280;53009;52.490;4.976;2022-09-25T07:00:13;101800;;;10.6;13.9
66206;BME280;53009;52.490;4.976;2022-09-25T07:01:19;101800;;;10.7;13.8
66206;BME280;53009;52.490;4.976;2022-09-25T07:02:25;101800;;;10.7;13.9
66206;BME280;53009;52.490;4.976;2022-09-25T07:07:39;101800;;;10.8;14
66206;BME280;53009;52.490;4.976;2022-09-25T07:11:49;101800;;;11;13.8
66206;BME280;53009;52.490;4.976;2022-09-25T07:14:55;101700;;;11.1;13.7
66206;BME280;53009;52.490;4.976;2022-09-25T07:16:10;101700;;;11.2;13.7
66206;BME280;53009;52.490;4.976;2022-09-25T07:17:59;101700;;;11.2;13.5
66206;BME280;53009;52.490;4.976;2022-09-25T07:22:21;101800;;;11.4;13.6
66206;BME280;53009;52.490;4.976;2022-09-25T07:22:59;101800;;;11.5;13.6
66206;BME280;53009;52.490;4.976;2022-09-25T07:23:59;101700;;;11.6;13.6
66206;BME280;53009;52.490;4.976;2022-09-25T07:27:00;101800;;;11.8;13.5
66206;BME280;53009;52.490;4.976;2022-09-25T07:32:00;101800;;;12.5;13.3
66206;BME280;53009;52.490;4.976;2022-09-25T07:33:35;101700;;;12.6;13.2
66206;BME280;53009;52.490;4.976;2022-09-25T07:37:44;101700;;;13;12.3
66206;BME280;53009;52.490;4.976;2022-09-25T07:39:54;101700;;;13;11.5
66206;BME280;53009;52.490;4.976;2022-09-25T07:44:54;101700;;;13;10.7
66206;BME280;53009;52.490;4.976;2022-09-25T07:46:19;101700;;;13;10.2
66206;BME280;53009;52.490;4.976;2022-09-25T07:49:42;101700;;;13;10.4
66206;BME280;53009;52.490;4.976;2022-09-25T07:50:48;101700;;;13;10.3
66206;BME280;53009;52.490;4.976;2022-09-25T07:53:16;101700;;;12.9;10.4
66206;BME280;53009;52.490;4.976;2022-09-25T07:58:16;101800;;;13;10.1
66206;BME280;53009;52.490;4.976;2022-09-25T08:00:38;101800;;;13.1;10.1
66206;BME280;53009;52.490;4.976;2022-09-25T08:02:57;101800;;;13.2;10.2
66206;BME280;53009;52.490;4.976;2022-09-25T08:06:18;101800;;;13.2;9.8
66206;BME280;53009;52.490;4.976;2022-09-25T08:09:01;101800;;;13.2;9.8
66206;BME280;53009;52.490;4.976;2022-09-25T08:10:09;101800;;;13.2;9.9
66206;BME280;53009;52.490;4.976;2022-09-25T08:11:59;101800;;;13.2;10.2
66206;BME280;53009;52.490;4.976;2022-09-25T08:12:27;101800;;;13.1;9.7
66206;BME280;53009;52.490;4.976;2022-09-25T08:14:44;101800;;;13.1;9.8
66206;BME280;53009;52.490;4.976;2022-09-25T08:19:27;101800;;;13;9.7
66206;BME280;53009;52.490;4.976;2022-09-25T08:20:25;101800;;;12.9;9.9
66206;BME280;53009;52.490;4.976;2022-09-25T08:25:25;101800;;;13.3;10.1
66206;BME280;53009;52.490;4.976;2022-09-25T08:27:01;101800;;;13.6;10.2
66206;BME280;53009;52.490;4.976;2022-09-25T08:28:01;101800;;;13.7;9.8
66206;BME280;53009;52.490;4.976;2022-09-25T08:32:51;101800;;;14.1;9.2
66206;BME280;53009;52.490;4.976;2022-09-25T08:37:51;101800;;;14.4;8.2
66206;BME280;53009;52.490;4.976;2022-09-25T08:42:52;101800;;;14.7;7.9
66206;BME280;53009;52.490;4.976;2022-09-25T08:47:53;101800;;;14.7;5.1
66206;BME280;53009;52.490;4.976;2022-09-25T08:52:52;101800;;;14.9;5.2
66206;BME280;53009;52.490;4.976;2022-09-25T08:57:51;101700;;;15.3;4.6
66206;BME280;53009;52.490;4.976;2022-09-25T09:02:52;101700;;;15.5;4.4
66206;BME280;53009;52.490;4.976;2022-09-25T09:07:52;101700;;;15.6;3.8
66206;BME280;53009;52.490;4.976;2022-09-25T09:12:53;101700;;;15.7;3.2
66206;BME280;53009;52.490;4.976;2022-09-25T09:17:51;101700;;;15.8;2.7
66206;BME280;53009;52.490;4.976;2022-09-25T09:22:51;101700;;;15.9;2.1
66206;BME280;53009;52.490;4.976;2022-09-25T09:27:57;101700;;;15.5;3.3
66206;BME280;53009;52.490;4.976;2022-09-25T09:32:58;101700;;;15.5;0.7
66206;BME280;53009;52.490;4.976;2022-09-25T09:37:54;101700;;;15.8;1.7
66206;BME280;53009;52.490;4.976;2022-09-25T09:42:53;101700;;;16.3;0
66206;BME280;53009;52.490;4.976;2022-09-25T09:47:53;101700;;;15.9;0
66206;BME280;53009;52.490;4.976;2022-09-25T09:52:53;101700;;;16;1.7
66206;BME280;53009;52.490;4.976;2022-09-25T09:57:52;101700;;;16.6;0
66206;BME280;53009;52.490;4.976;2022-09-25T10:02:52;101700;;;16.3;0
66206;BME280;53009;52.490;4.976;2022-09-25T10:07:53;101700;;;15.9;0
66206;BME280;53009;52.490;4.976;2022-09-25T10:12:52;101700;;;16.3;2.7
66206;BME280;53009;52.490;4.976;2022-09-25T10:17:52;101700;;;17.5;0
66206;BME280;53009;52.490;4.976;2022-09-25T10:22:52;101700;;;16.7;0
66206;BME280;53009;52.490;4.976;2022-09-25T10:27:51;101700;;;16.6;0.7
66206;BME280;53009;52.490;4.976;2022-09-25T10:32:54;101700;;;17;0
66206;BME280;53009;52.490;4.976;2022-09-25T10:37:52;101700;;;16.4;0
66206;BME280;53009;52.490;4.976;2022-09-25T10:43:01;101700;;;16;3.1
66206;BME280;53009;52.490;4.976;2022-09-25T10:47:51;101700;;;15.4;5.3
66206;BME280;53009;52.490;4.976;2022-09-25T10:52:52;101700;;;14.9;7
66206;BME280;53009;52.490;4.976;2022-09-25T10:57:53;101700;;;14.7;7.5
66206;BME280;53009;52.490;4.976;2022-09-25T11:02:52;101700;;;14.7;7.9
66206;BME280;53009;52.490;4.976;2022-09-25T11:07:52;101700;;;14.6;8.2
66206;BME280;53009;52.490;4.976;2022-09-25T11:12:51;101700;;;14.5;7.8
66206;BME280;53009;52.490;4.976;2022-09-25T11:17:52;101700;;;14.5;7.9
66206;BME280;53009;52.490;4.976;2022-09-25T11:22:53;101700;;;14.7;8
66206;BME280;53009;52.490;4.976;2022-09-25T11:27:52;101700;;;15;8.2
66206;BME280;53009;52.490;4.976;2022-09-25T11:32:53;101700;;;15.2;7.9
66206;BME280;53009;52.490;4.976;2022-09-25T11:37:55;101700;;;15.4;8.7
66206;BME280;53009;52.490;4.976;2022-09-25T11:42:53;101700;;;15.5;7.5
66206;BME280;53009;52.490;4.976;2022-09-25T11:47:52;101700;;;16;8.8
66206;BME280;53009;52.490;4.976;2022-09-25T11:52:54;101700;;;15.9;6.4
66206;BME280;53009;52.490;4.976;2022-09-25T11:57:54;101700;;;16.1;7.7
66206;BME280;53009;52.490;4.976;2022-09-25T12:02:57;101700;;;16.8;5.1
66206;BME280;53009;52.490;4.976;2022-09-25T12:07:58;101700;;;17.1;4.3
66206;BME280;53009;52.490;4.976;2022-09-25T12:12:53;101700;;;17;1.3
66206;BME280;53009;52.490;4.976;2022-09-25T12:17:54;101700;;;17.1;1.2
66206;BME280;53009;52.490;4.976;2022-09-25T12:22:57;101700;;;17.1;0
66206;BME280;53009;52.490;4.976;2022-09-25T12:27:53;101600;;;17.3;0.9
66206;BME280;53009;52.490;4.976;2022-09-25T12:33:06;101600;;;17.4;0
66206;BME280;53009;52.490;4.976;2022-09-25T12:37:52;101600;;;17.6;0.4
66206;BME280;53009;52.490;4.976;2022-09-25T12:42:53;101600;;;17.8;0
66206;BME280;53009;52.490;4.976;2022-09-25T12:47:56;101600;;;17.8;0
66206;BME280;53009;52.490;4.976;2022-09-25T12:52:52;101600;;;17.7;0
66206;BME280;53009;52.490;4.976;2022-09-25T12:54:46;101600;;;17.5;0
66206;BME280;53009;52.490;4.976;2022-09-25T12:57:28;101600;;;17.2;1.5
66206;BME280;53009;52.490;4.976;2022-09-25T12:58:28;101600;;;17;0.9
66206;BME280;53009;52.490;4.976;2022-09-25T12:59:48;101600;;;16.9;0.9
66206;BME280;53009;52.490;4.976;2022-09-25T13:01:00;101600;;;16.7;0.2
66206;BME280;53009;52.490;4.976;2022-09-25T13:02:01;101600;;;16.6;2.2
66206;BME280;53009;52.490;4.976;2022-09-25T13:03:01;101600;;;16.5;1.6
66206;BME280;53009;52.490;4.976;2022-09-25T13:05:02;101600;;;16.6;1.8
66206;BME280;53009;52.490;4.976;2022-09-25T13:06:14;101600;;;16.5;2.1
66206;BME280;53009;52.490;4.976;2022-09-25T13:10:32;101600;;;16.4;2.5
66206;BME280;53009;52.490;4.976;2022-09-25T13:12:34;101600;;;16.3;2.9
66206;BME280;53009;52.490;4.976;2022-09-25T13:15:01;101600;;;16.3;2.3
66206;BME280;53009;52.490;4.976;2022-09-25T13:20:47;101600;;;16.1;2.5
66206;BME280;53009;52.490;4.976;2022-09-25T13:22:08;101600;;;16.1;2.1
66206;BME280;53009;52.490;4.976;2022-09-25T13:27:08;101600;;;16.1;1.3
66206;BME280;53009;52.490;4.976;2022-09-25T13:31:38;101600;;;16.1;0.9
66206;BME280;53009;52.490;4.976;2022-09-25T13:34:44;101600;;;16.1;1.6
66206;BME280;53009;52.490;4.976;2022-09-25T13:37:12;101600;;;16.1;1.5
66206;BME280;53009;52.490;4.976;2022-09-25T13:38:40;101600;;;16.1;1.4
66206;BME280;53009;52.490;4.976;2022-09-25T13:40:14;101600;;;16.1;1.4
66206;BME280;53009;52.490;4.976;2022-09-25T13:41:34;101600;;;16.1;1.4
66206;BME280;53009;52.490;4.976;2022-09-25T13:44:49;101600;;;16.1;1.7
66206;BME280;53009;52.490;4.976;2022-09-25T13:47:42;101600;;;16;0.1
66206;BME280;53009;52.490;4.976;2022-09-25T13:48:36;101600;;;16;1
66206;BME280;53009;52.490;4.976;2022-09-25T13:53:20;101600;;;16;0.5
66206;BME280;53009;52.490;4.976;2022-09-25T13:54:24;101600;;;16;1.2
66206;BME280;53009;52.490;4.976;2022-09-25T13:57:56;101600;;;16;3.4
66206;BME280;53009;52.490;4.976;2022-09-25T13:59:41;101600;;;16.1;3.7
66206;BME280;53009;52.490;4.976;2022-09-25T14:00:55;101600;;;16.1;4.1
66206;BME280;53009;52.490;4.976;2022-09-25T14:04:15;101600;;;16.3;4.9
66206;BME280;53009;52.490;4.976;2022-09-25T14:06:28;101600;;;16.3;5
66206;BME280;53009;52.490;4.976;2022-09-25T14:09:09;101600;;;16.3;5.1
66206;BME280;53009;52.490;4.976;2022-09-25T14:10:07;101600;;;16.4;5.4
66206;BME280;53009;52.490;4.976;2022-09-25T14:12:20;101600;;;16.3;5.2
66206;BME280;53009;52.490;4.976;2022-09-25T14:15:17;101600;;;17;5.6
66206;BME280;53009;52.490;4.976;2022-09-25T14:16:16;101600;;;17.2;5.5
66206;BME280;53009;52.490;4.976;2022-09-25T14:17:28;101600;;;17.4;5.7
66206;BME280;53009;52.490;4.976;2022-09-25T14:20:29;101600;;;17.2;4.4
66206;BME280;53009;52.490;4.976;2022-09-25T14:22:37;101600;;;17.1;4.8
66206;BME280;53009;52.490;4.976;2022-09-25T14:26:42;101600;;;16.9;4.9
66206;BME280;53009;52.490;4.976;2022-09-25T14:31:39;101600;;;16.9;5.3
66206;BME280;53009;52.490;4.976;2022-09-25T14:32:05;101500;;;16.9;5.3
66206;BME280;53009;52.490;4.976;2022-09-25T14:35:00;101500;;;17;5.2
66206;BME280;53009;52.490;4.976;2022-09-25T14:40:01;101500;;;17.4;4.5
66206;BME280;53009;52.490;4.976;2022-09-25T14:40:27;101500;;;17.4;4.1
66206;BME280;53009;52.490;4.976;2022-09-25T14:45:31;101500;;;17.4;3.5
66206;BME280;53009;52.490;4.976;2022-09-25T14:50:28;101500;;;17.8;0.2
66206;BME280;53009;52.490;4.976;2022-09-25T14:51:09;101500;;;17.8;0
66206;BME280;53009;52.490;4.976;2022-09-25T14:53:20;101500;;;17.7;100
66206;BME280;53009;52.490;4.976;2022-09-25T14:54:33;101500;;;17.6;100
66206;BME280;53009;52.490;4.976;2022-09-25T14:57:47;101500;;;17.3;100
66206;BME280;53009;52.490;4.976;2022-09-25T15:00:06;101500;;;17.2;100
66206;BME280;53009;52.490;4.976;2022-09-25T15:03:10;101500;;;17.3;100
66206;BME280;53009;52.490;4.976;2022-09-25T15:05:16;101500;;;17.4;0
66206;BME280;53009;52.490;4.976;2022-09-25T15:06:11;101500;;;17.5;0
66206;BME280;53009;52.490;4.976;2022-09-25T15:07:39;101500;;;17.6;0
66206;BME280;53009;52.490;4.976;2022-09-25T15:12:48;101500;;;17.1;0
66206;BME280;53009;52.490;4.976;2022-09-25T15:15:38;101500;;;17.2;0
66206;BME280;53009;52.490;4.976;2022-09-25T15:20:04;101500;;;17.3;0
66206;BME280;53009;52.490;4.976;2022-09-25T15:22:22;101500;;;17.4;0
66206;BME280;53009;52.490;4.976;2022-09-25T15:24:48;101500;;;17.5;0
66206;BME280;53009;52.490;4.976;2022-09-25T15:29:14;101500;;;17.8;0
66206;BME280;53009;52.490;4.976;2022-09-25T15:31:33;101500;;;17.7;0
66206;BME280;53009;52.490;4.976;2022-09-25T15:36:32;101500;;;17.7;0
66206;BME280;53009;52.490;4.976;2022-09-25T15:37:18;101500;;;17.7;0
66206;BME280;53009;52.490;4.976;2022-09-25T15:38:28;101500;;;17.6;0
66206;BME280;53009;52.490;4.976;2022-09-25T15:40:00;101500;;;17.5;0
66206;BME280;53009;52.490;4.976;2022-09-25T15:41:33;101500;;;17.5;0
66206;BME280;53009;52.490;4.976;2022-09-25T15:42:54;101500;;;17.3;0
66206;BME280;53009;52.490;4.976;2022-09-25T15:45:07;101500;;;17.1;0
66206;BME280;53009;52.490;4.976;2022-09-25T15:47:48;101500;;;16.9;0
66206;BME280;53009;52.490;4.976;2022-09-25T15:48:22;101500;;;16.9;0
66206;BME280;53009;52.490;4.976;2022-09-25T15:50:31;101500;;;16.9;0
66206;BME280;53009;52.490;4.976;2022-09-25T15:55:31;101500;;;16.5;0
66206;BME280;53009;52.490;4.976;2022-09-25T15:57:37;101500;;;16.5;0
66206;BME280;53009;52.490;4.976;2022-09-25T16:01:00;101500;;;16.4;0.7
66206;BME280;53009;52.490;4.976;2022-09-25T16:05:29;101500;;;16.4;1.8
66206;BME280;53009;52.490;4.976;2022-09-25T16:10:30;101500;;;16.3;1.6
66206;BME280;53009;52.490;4.976;2022-09-25T16:15:41;101500;;;16.2;1.7
66206;BME280;53009;52.490;4.976;2022-09-25T16:20:31;101500;;;16.1;3.9
66206;BME280;53009;52.490;4.976;2022-09-25T16:25:29;101500;;;15.9;3.7
66206;BME280;53009;52.490;4.976;2022-09-25T16:30:29;101500;;;15.9;3.4
66206;BME280;53009;52.490;4.976;2022-09-25T16:35:30;101500;;;15.8;3.2
66206;BME280;53009;52.490;4.976;2022-09-25T16:40:29;101500;;;15.7;3.7
66206;BME280;53009;52.490;4.976;2022-09-25T16:45:30;101500;;;15.8;4.3
66206;BME280;53009;52.490;4.976;2022-09-25T16:50:29;101500;;;15.6;4.6
66206;BME280;53009;52.490;4.976;2022-09-25T16:55:29;101500;;;15.5;4.8
66206;BME280;53009;52.490;4.976;2022-09-25T17:00:29;101500;;;15.4;5.5
66206;BME280;53009;52.490;4.976;2022-09-25T17:05:30;101500;;;15.4;5.5
66206;BME280;53009;52.490;4.976;2022-09-25T17:10:29;101500;;;15.3;6.1
66206;BME280;53009;52.490;4.976;2022-09-25T17:15:31;101400;;;15.3;6.2
66206;BME280;53009;52.490;4.976;2022-09-25T17:20:31;101400;;;15.2;5.9
66206;BME280;53009;52.490;4.976;2022-09-25T17:25:33;101400;;;15.1;6.4
66206;BME280;53009;52.490;4.976;2022-09-25T17:30:29;101400;;;15;6.8
66206;BME280;53009;52.490;4.976;2022-09-25T17:35:34;101400;;;14.8;7.2
66206;BME280;53009;52.490;4.976;2022-09-25T17:40:29;101400;;;14.8;7.4
66206;BME280;53009;52.490;4.976;2022-09-25T17:45:31;101400;;;14.7;7.7
66206;BME280;53009;52.490;4.976;2022-09-25T17:50:29;101400;;;14.6;7.9
66206;BME280;53009;52.490;4.976;2022-09-25T17:55:29;101400;;;14.5;8
66206;BME280;53009;52.490;4.976;2022-09-25T18:00:29;101400;;;14.5;8
66206;BME280;53009;52.490;4.976;2022-09-25T18:05:31;101400;;;14.4;8.1
66206;BME280;53009;52.490;4.976;2022-09-25T18:10:31;101400;;;14.3;8.2
66206;BME280;53009;52.490;4.976;2022-09-25T18:15:29;101400;;;14.2;8.4
66206;BME280;53009;52.490;4.976;2022-09-25T18:17:35;101400;;;14.2;8.5
66206;BME280;53009;52.490;4.976;2022-09-25T18:19:37;101400;;;14.2;8.5
66206;BME280;53009;52.490;4.976;2022-09-25T18:23:40;101400;;;14.2;8.7
66206;BME280;53009;52.490;4.976;2022-09-25T18:24:53;101400;;;14.1;8.7
66206;BME280;53009;52.490;4.976;2022-09-25T18:26:00;101400;;;14.1;8.8
66206;BME280;53009;52.490;4.976;2022-09-25T18:27:46;101400;;;14.1;8.8
66206;BME280;53009;52.490;4.976;2022-09-25T18:31:56;101400;;;14.1;8.9
66206;BME280;53009;52.490;4.976;2022-09-25T18:33:34;101400;;;14.1;8.9
66206;BME280;53009;52.490;4.976;2022-09-25T18:34:49;101400;;;14.1;8.9
66206;BME280;53009;52.490;4.976;2022-09-25T18:35:39;101400;;;14.1;9
66206;BME280;53009;52.490;4.976;2022-09-25T18:37:41;101400;;;14.1;9
66206;BME280;53009;52.490;4.976;2022-09-25T18:38:55;101400;;;14.1;9.1
66206;BME280;53009;52.490;4.976;2022-09-25T18:40:50;101400;;;14.1;9.1
66206;BME280;53009;52.490;4.976;2022-09-25T18:41:34;101400;;;14.1;9.1
66206;BME280;53009;52.490;4.976;2022-09-25T18:44:56;101400;;;14.1;9.1
66206;BME280;53009;52.490;4.976;2022-09-25T18:46:42;101400;;;14.1;9.2
66206;BME280;53009;52.490;4.976;2022-09-25T18:51:42;101400;;;14;9.3
66206;BME280;53009;52.490;4.976;2022-09-25T18:52:12;101400;;;14;9.3
66206;BME280;53009;52.490;4.976;2022-09-25T18:53:27;101400;;;14;9.3
66206;BME280;53009;52.490;4.976;2022-09-25T18:54:00;101400;;;14;9.3
66206;BME280;53009;52.490;4.976;2022-09-25T18:55:00;101400;;;14;9.3
66206;BME280;53009;52.490;4.976;2022-09-25T18:56:01;101400;;;14;9.4
66206;BME280;53009;52.490;4.976;2022-09-25T18:59:59;101400;;;14;9.5
66206;BME280;53009;52.490;4.976;2022-09-25T19:04:59;101400;;;14;9.5
66206;BME280;53009;52.490;4.976;2022-09-25T19:05:39;101400;;;14;9.6
66206;BME280;53009;52.490;4.976;2022-09-25T19:07:38;101400;;;14;9.6
66206;BME280;53009;52.490;4.976;2022-09-25T19:11:58;101300;;;14;9.6
66206;BME280;53009;52.490;4.976;2022-09-25T19:16:58;101300;;;13.9;9.6
66206;BME280;53009;52.490;4.976;2022-09-25T19:21:23;101300;;;13.8;9.7
66206;BME280;53009;52.490;4.976;2022-09-25T19:22:35;101300;;;13.9;9.8
66206;BME280;53009;52.490;4.976;2022-09-25T19:24:37;101300;;;13.8;9.9
66206;BME280;53009;52.490;4.976;2022-09-25T19:25:52;101300;;;13.8;9.9
66206;BME280;53009;52.490;4.976;2022-09-25T19:27:54;101300;;;13.9;9.9
66206;BME280;53009;52.490;4.976;2022-09-25T19:28:52;101300;;;13.8;9.9
66206;BME280;53009;52.490;4.976;2022-09-25T19:29:50;101300;;;13.8;9.9
66206;BME280;53009;52.490;4.976;2022-09-25T19:33:29;101300;;;13.8;9.9
66206;BME280;53009;52.490;4.976;2022-09-25T19:35:55;101300;;;13.8;10
66206;BME280;53009;52.490;4.976;2022-09-25T19:38:04;101300;;;13.8;10
66206;BME280;53009;52.490;4.976;2022-09-25T19:39:18;101300;;;13.8;9.9
66206;BME280;53009;52.490;4.976;2022-09-25T19:40:24;101300;;;13.9;10
66206;BME280;53009;52.490;4.976;2022-09-25T19:45:24;101300;;;13.8;9.9
66206;BME280;53009;52.490;4.976;2022-09-25T19:50:24;101300;;;13.8;9.9
66206;BME280;53009;52.490;4.976;2022-09-25T19:51:30;101300;;;13.8;9.9
66206;BME280;53009;52.490;4.976;2022-09-25T19:54:07;101300;;;13.8;9.9